sensor_id;sensor_type;location;lat;lon;timestamp;pressure;altitude;pressure_sealevel;temperature;humidity
804;BME280;25687;49.976;8.240;2022-10-12T00:01:01;100929.09;;;5.20;100.00
804;BME280;25687;49.976;8.240;2022-10-12T00:03:26;100934.41;;;5.09;100.00
804;BME280;25687;49.976;8.240;2022-10-12T00:06:08;100931.81;;;5.11;100.00
804;BME280;25687;49.976;8.240;2022-10-12T00:08:34;100925.91;;;5.09;100.00
804;BME280;25687;49.976;8.240;2022-10-12T00:11:01;100927.38;;;5.21;100.00
804;BME280;25687;49.976;8.240;2022-10-12T00:13:26;100930.16;;;5.10;100.00
804;BME280;25687;49.976;8.240;2022-10-12T00:15:52;100930.03;;;5.14;100.00
804;BME280;25687;49.976;8.240;2022-10-12T00:18:17;100924.13;;;5.14;100.00
804;BME280;25687;49.976;8.240;2022-10-12T00:20:42;100927.59;;;5.10;100.00
804;BME280;25687;49.976;8.240;2022-10-12T00:23:08;100930.88;;;5.16;100.00
804;BME280;25687;49.976;8.240;2022-10-12T00:25:38;100926.72;;;5.11;100.00
804;BME280;25687;49.976;8.240;2022-10-12T00:28:04;100928.44;;;5.10;100.00
804;BME280;25687;49.976;8.240;2022-10-12T00:30:29;100927.72;;;5.04;100.00
804;BME280;25687;49.976;8.240;2022-10-12T00:32:55;100923.47;;;5.01;100.00
804;BME280;25687;49.976;8.240;2022-10-12T00:35:21;100927.78;;;4.99;100.00
804;BME280;25687;49.976;8.240;2022-10-12T00:37:46;100920.97;;;4.99;100.00
804;BME280;25687;49.976;8.240;2022-10-12T00:40:11;100925.09;;;5.07;100.00
804;BME280;25687;49.976;8.240;2022-10-12T00:42:37;100926.19;;;4.93;100.00
804;BME280;25687;49.976;8.240;2022-10-12T00:45:03;100926.19;;;4.93;100.00
804;BME280;25687;49.976;8.240;2022-10-12T00:47:34;100925.38;;;4.90;100.00
804;BME280;25687;49.976;8.240;2022-10-12T00:53:10;100932.38;;;4.78;100.00
804;BME280;25687;49.976;8.240;2022-10-12T00:55:43;100922.00;;;4.89;100.00
804;BME280;25687;49.976;8.240;2022-10-12T00:58:10;100931.34;;;4.89;100.00
804;BME280;25687;49.976;8.240;2022-10-12T01:00:36;100922.09;;;4.84;100.00
804;BME280;25687;49.976;8.240;2022-10-12T01:03:03;100929.13;;;4.72;100.00
804;BME280;25687;49.976;8.240;2022-10-12T01:05:30;100925.84;;;4.63;100.00
804;BME280;25687;49.976;8.240;2022-10-12T01:07:55;100923.41;;;4.57;100.00
804;BME280;25687;49.976;8.240;2022-10-12T01:10:20;100930.97;;;4.62;100.00
804;BME280;25687;49.976;8.240;2022-10-12T01:12:47;100924.06;;;4.68;100.00
804;BME280;25687;49.976;8.240;2022-10-12T01:15:14;100929.97;;;4.71;100.00
804;BME280;25687;49.976;8.240;2022-10-12T01:17:49;100927.47;;;4.67;100.00
804;BME280;25687;49.976;8.240;2022-10-12T01:31:42;100921.69;;;4.59;100.00
804;BME280;25687;49.976;8.240;2022-10-12T01:34:19;100927.47;;;4.67;100.00
804;BME280;25687;49.976;8.240;2022-10-12T01:39:55;100918.25;;;4.59;100.00
804;BME280;25687;49.976;8.240;2022-10-12T01:42:30;100914.94;;;4.57;100.00
804;BME280;25687;49.976;8.240;2022-10-12T01:45:04;100916.72;;;4.50;100.00
804;BME280;25687;49.976;8.240;2022-10-12T01:47:31;100913.28;;;4.52;100.00
804;BME280;25687;49.976;8.240;2022-10-12T01:49:58;100917.47;;;4.57;100.00
804;BME280;25687;49.976;8.240;2022-10-12T01:52:28;100909.94;;;4.50;100.00
804;BME280;25687;49.976;8.240;2022-10-12T01:57:57;100916.97;;;4.34;100.00
804;BME280;25687;49.976;8.240;2022-10-12T02:00:25;100907.34;;;4.52;100.00
804;BME280;25687;49.976;8.240;2022-10-12T02:03:09;100907.38;;;4.49;100.00
804;BME280;25687;49.976;8.240;2022-10-12T02:10:54;100907.50;;;4.41;100.00
804;BME280;25687;49.976;8.240;2022-10-12T02:13:23;100904.16;;;4.38;100.00
804;BME280;25687;49.976;8.240;2022-10-12T02:15:51;100902.44;;;4.40;100.00
804;BME280;25687;49.976;8.240;2022-10-12T02:18:18;100896.66;;;4.30;100.00
804;BME280;25687;49.976;8.240;2022-10-12T02:20:47;100898.31;;;4.32;100.00
804;BME280;25687;49.976;8.240;2022-10-12T02:23:15;100895.00;;;4.27;100.00
804;BME280;25687;49.976;8.240;2022-10-12T02:25:42;100892.44;;;4.29;100.00
804;BME280;25687;49.976;8.240;2022-10-12T02:28:10;100891.53;;;4.31;100.00
804;BME280;25687;49.976;8.240;2022-10-12T02:30:51;100887.41;;;4.24;100.00
804;BME280;25687;49.976;8.240;2022-10-12T02:33:41;100885.66;;;4.28;100.00
804;BME280;25687;49.976;8.240;2022-10-12T02:36:12;100884.84;;;4.24;100.00
804;BME280;25687;49.976;8.240;2022-10-12T02:38:47;100891.72;;;4.19;100.00
804;BME280;25687;49.976;8.240;2022-10-12T02:41:19;100881.59;;;4.16;100.00
804;BME280;25687;49.976;8.240;2022-10-12T02:43:56;100879.19;;;4.08;100.00
804;BME280;25687;49.976;8.240;2022-10-12T02:46:25;100882.59;;;4.07;100.00
804;BME280;25687;49.976;8.240;2022-10-12T02:48:54;100880.00;;;4.09;100.00
804;BME280;25687;49.976;8.240;2022-10-12T02:51:20;100880.84;;;4.11;100.00
804;BME280;25687;49.976;8.240;2022-10-12T02:53:47;100872.31;;;4.13;100.00
804;BME280;25687;49.976;8.240;2022-10-12T02:56:14;100872.28;;;4.15;100.00
804;BME280;25687;49.976;8.240;2022-10-12T02:58:44;100879.97;;;4.10;100.00
804;BME280;25687;49.976;8.240;2022-10-12T03:01:10;100871.53;;;4.08;100.00
804;BME280;25687;49.976;8.240;2022-10-12T03:03:35;100872.41;;;4.07;100.00
804;BME280;25687;49.976;8.240;2022-10-12T03:06:01;100875.94;;;3.97;100.00
804;BME280;25687;49.976;8.240;2022-10-12T03:08:26;100871.75;;;3.93;100.00
804;BME280;25687;49.976;8.240;2022-10-12T03:10:51;100878.59;;;3.89;100.00
804;BME280;25687;49.976;8.240;2022-10-12T03:13:16;100876.19;;;3.80;100.00
804;BME280;25687;49.976;8.240;2022-10-12T03:15:42;100875.03;;;3.99;100.00
804;BME280;25687;49.976;8.240;2022-10-12T03:18:07;100870.84;;;3.98;100.00
804;BME280;25687;49.976;8.240;2022-10-12T03:20:32;100876.84;;;3.93;100.00
804;BME280;25687;49.976;8.240;2022-10-12T03:22:58;100879.38;;;3.93;100.00
804;BME280;25687;49.976;8.240;2022-10-12T03:25:23;100873.44;;;3.94;100.00
804;BME280;25687;49.976;8.240;2022-10-12T03:27:48;100880.38;;;3.84;100.00
804;BME280;25687;49.976;8.240;2022-10-12T03:30:13;100881.06;;;3.94;100.00
804;BME280;25687;49.976;8.240;2022-10-12T03:32:39;100876.94;;;3.86;100.00
804;BME280;25687;49.976;8.240;2022-10-12T03:35:04;100877.72;;;3.90;100.00
804;BME280;25687;49.976;8.240;2022-10-12T03:37:30;100880.22;;;3.95;100.00
804;BME280;25687;49.976;8.240;2022-10-12T03:39:56;100871.94;;;3.80;100.00
804;BME280;25687;49.976;8.240;2022-10-12T03:42:21;100872.69;;;3.87;100.00
804;BME280;25687;49.976;8.240;2022-10-12T03:44:46;100882.81;;;3.90;100.00
804;BME280;25687;49.976;8.240;2022-10-12T03:47:12;100882.03;;;3.86;100.00
804;BME280;25687;49.976;8.240;2022-10-12T03:49:37;100877.78;;;3.85;100.00
804;BME280;25687;49.976;8.240;2022-10-12T03:52:02;100880.22;;;3.95;100.00
804;BME280;25687;49.976;8.240;2022-10-12T03:54:28;100882.97;;;3.81;100.00
804;BME280;25687;49.976;8.240;2022-10-12T03:56:53;100881.22;;;3.83;100.00
804;BME280;25687;49.976;8.240;2022-10-12T03:59:18;100872.72;;;3.84;100.00
804;BME280;25687;49.976;8.240;2022-10-12T04:01:43;100876.06;;;3.87;100.00
804;BME280;25687;49.976;8.240;2022-10-12T04:04:09;100882.03;;;3.86;100.00
804;BME280;25687;49.976;8.240;2022-10-12T04:06:35;100879.47;;;3.86;100.00
804;BME280;25687;49.976;8.240;2022-10-12T04:09:00;100885.44;;;3.84;100.00
804;BME280;25687;49.976;8.240;2022-10-12T04:11:25;100879.44;;;3.88;100.00
804;BME280;25687;49.976;8.240;2022-10-12T04:13:50;100875.25;;;3.85;100.00
804;BME280;25687;49.976;8.240;2022-10-12T04:16:16;100879.59;;;3.79;100.00
804;BME280;25687;49.976;8.240;2022-10-12T04:18:41;100879.56;;;3.80;100.00
804;BME280;25687;49.976;8.240;2022-10-12T04:21:12;100872.84;;;3.76;100.00
804;BME280;25687;49.976;8.240;2022-10-12T04:23:39;100881.44;;;3.67;100.00
804;BME280;25687;49.976;8.240;2022-10-12T04:26:05;100881.28;;;3.80;100.00
804;BME280;25687;49.976;8.240;2022-10-12T04:28:31;100870.28;;;3.78;100.00
804;BME280;25687;49.976;8.240;2022-10-12T04:30:56;100875.31;;;3.79;100.00
804;BME280;25687;49.976;8.240;2022-10-12T04:33:22;100876.06;;;3.87;100.00
804;BME280;25687;49.976;8.240;2022-10-12T04:35:47;100878.69;;;3.81;100.00
804;BME280;25687;49.976;8.240;2022-10-12T04:38:12;100881.41;;;3.69;100.00
804;BME280;25687;49.976;8.240;2022-10-12T04:40:38;100886.47;;;3.70;100.00
804;BME280;25687;49.976;8.240;2022-10-12T04:43:03;100884.75;;;3.72;100.00
804;BME280;25687;49.976;8.240;2022-10-12T04:45:28;100888.16;;;3.71;100.00
804;BME280;25687;49.976;8.240;2022-10-12T04:47:54;100890.91;;;3.54;100.00
804;BME280;25687;49.976;8.240;2022-10-12T04:50:19;100885.69;;;3.68;100.00
804;BME280;25687;49.976;8.240;2022-10-12T04:52:44;100897.66;;;3.57;100.00
804;BME280;25687;49.976;8.240;2022-10-12T04:55:10;100894.22;;;3.63;100.00
804;BME280;25687;49.976;8.240;2022-10-12T04:57:35;100892.50;;;3.63;100.00
804;BME280;25687;49.976;8.240;2022-10-12T05:00:00;100894.28;;;3.57;100.00
804;BME280;25687;49.976;8.240;2022-10-12T05:02:25;100890.91;;;3.54;100.00
804;BME280;25687;49.976;8.240;2022-10-12T05:04:51;100887.66;;;3.46;100.00
804;BME280;25687;49.976;8.240;2022-10-12T05:07:16;100891.84;;;3.47;100.00
804;BME280;25687;49.976;8.240;2022-10-12T05:09:42;100889.25;;;3.52;100.00
804;BME280;25687;49.976;8.240;2022-10-12T05:12:07;100888.53;;;3.44;100.00
804;BME280;25687;49.976;8.240;2022-10-12T05:14:33;100888.47;;;3.50;100.00
804;BME280;25687;49.976;8.240;2022-10-12T05:16:58;100895.34;;;3.40;100.00
804;BME280;25687;49.976;8.240;2022-10-12T05:19:23;100886.75;;;3.47;100.00
804;BME280;25687;49.976;8.240;2022-10-12T05:21:48;100897.00;;;3.44;100.00
804;BME280;25687;49.976;8.240;2022-10-12T05:24:14;100889.38;;;3.43;100.00
804;BME280;25687;49.976;8.240;2022-10-12T05:26:39;100896.28;;;3.33;100.00
804;BME280;25687;49.976;8.240;2022-10-12T05:29:04;100891.75;;;3.57;100.00
804;BME280;25687;49.976;8.240;2022-10-12T05:31:30;100894.16;;;3.67;100.00
804;BME280;25687;49.976;8.240;2022-10-12T05:33:55;100892.53;;;3.62;100.00
804;BME280;25687;49.976;8.240;2022-10-12T05:36:20;100895.03;;;3.66;100.00
804;BME280;25687;49.976;8.240;2022-10-12T05:38:46;100892.50;;;3.63;100.00
804;BME280;25687;49.976;8.240;2022-10-12T05:41:11;100890.69;;;3.75;100.00
804;BME280;25687;49.976;8.240;2022-10-12T05:43:36;100886.41;;;3.75;100.00
804;BME280;25687;49.976;8.240;2022-10-12T05:46:01;100879.72;;;3.68;100.00
804;BME280;25687;49.976;8.240;2022-10-12T05:48:27;100882.06;;;3.82;100.00
804;BME280;25687;49.976;8.240;2022-10-12T05:50:52;100880.34;;;3.85;100.00
804;BME280;25687;49.976;8.240;2022-10-12T05:53:22;100882.94;;;3.82;100.00
804;BME280;25687;49.976;8.240;2022-10-12T05:55:52;100880.41;;;3.79;100.00
804;BME280;25687;49.976;8.240;2022-10-12T05:58:18;100878.59;;;3.89;100.00
804;BME280;25687;49.976;8.240;2022-10-12T06:00:43;100876.03;;;3.89;100.00
804;BME280;25687;49.976;8.240;2022-10-12T06:03:08;100874.25;;;3.94;100.00
804;BME280;25687;49.976;8.240;2022-10-12T06:05:33;100883.56;;;3.98;100.00
804;BME280;25687;49.976;8.240;2022-10-12T06:07:59;100882.56;;;4.06;100.00
804;BME280;25687;49.976;8.240;2022-10-12T06:10:24;100882.59;;;4.07;100.00
804;BME280;25687;49.976;8.240;2022-10-12T06:12:49;100887.50;;;4.18;100.00
804;BME280;25687;49.976;8.240;2022-10-12T06:15:15;100884.03;;;4.24;100.00
804;BME280;25687;49.976;8.240;2022-10-12T06:17:40;100884.19;;;4.13;100.00
804;BME280;25687;49.976;8.240;2022-10-12T06:20:06;100890.69;;;4.31;100.00
804;BME280;25687;49.976;8.240;2022-10-12T06:22:31;100884.56;;;4.43;100.00
804;BME280;25687;49.976;8.240;2022-10-12T06:24:56;100874.31;;;4.46;100.00
804;BME280;25687;49.976;8.240;2022-10-12T06:27:22;100879.25;;;4.55;100.00
804;BME280;25687;49.976;8.240;2022-10-12T06:29:49;100880.63;;;4.75;100.00
804;BME280;25687;49.976;8.240;2022-10-12T06:32:14;100882.09;;;4.88;100.00
804;BME280;25687;49.976;8.240;2022-10-12T06:34:39;100884.41;;;5.00;100.00
804;BME280;25687;49.976;8.240;2022-10-12T06:37:04;100878.59;;;4.94;100.00
804;BME280;25687;49.976;8.240;2022-10-12T06:39:30;100870.59;;;5.11;100.00
804;BME280;25687;49.976;8.240;2022-10-12T06:41:55;100876.91;;;5.37;100.00
804;BME280;25687;49.976;8.240;2022-10-12T06:44:21;100879.88;;;5.57;100.00
804;BME280;25687;49.976;8.240;2022-10-12T06:46:47;100877.72;;;6.17;100.00
804;BME280;25687;49.976;8.240;2022-10-12T06:49:13;100879.53;;;7.44;100.00
804;BME280;25687;49.976;8.240;2022-10-12T06:51:38;100869.56;;;8.97;100.00
804;BME280;25687;49.976;8.240;2022-10-12T06:54:03;100852.53;;;10.29;100.00
804;BME280;25687;49.976;8.240;2022-10-12T06:56:28;100854.91;;;10.13;100.00
804;BME280;25687;49.976;8.240;2022-10-12T06:58:55;100864.09;;;10.19;100.00
804;BME280;25687;49.976;8.240;2022-10-12T07:01:20;100859.84;;;11.01;100.00
804;BME280;25687;49.976;8.240;2022-10-12T07:03:45;100853.44;;;11.67;100.00
804;BME280;25687;49.976;8.240;2022-10-12T07:06:12;100853.25;;;12.25;93.16
804;BME280;25687;49.976;8.240;2022-10-12T07:08:38;100853.25;;;11.89;93.87
804;BME280;25687;49.976;8.240;2022-10-12T07:11:07;100856.09;;;12.54;88.76
804;BME280;25687;49.976;8.240;2022-10-12T07:13:33;100854.16;;;13.09;81.67
804;BME280;25687;49.976;8.240;2022-10-12T07:15:59;100856.34;;;12.83;82.29
804;BME280;25687;49.976;8.240;2022-10-12T07:18:24;100863.41;;;12.11;87.18
804;BME280;25687;49.976;8.240;2022-10-12T07:20:50;100864.25;;;11.37;93.80
804;BME280;25687;49.976;8.240;2022-10-12T07:23:16;100867.47;;;11.23;97.37
804;BME280;25687;49.976;8.240;2022-10-12T07:25:47;100873.50;;;11.22;97.70
804;BME280;25687;49.976;8.240;2022-10-12T07:28:13;100875.16;;;11.04;99.88
804;BME280;25687;49.976;8.240;2022-10-12T07:30:38;100876.09;;;10.82;100.00
804;BME280;25687;49.976;8.240;2022-10-12T07:33:04;100873.41;;;10.44;100.00
804;BME280;25687;49.976;8.240;2022-10-12T07:35:29;100877.66;;;10.23;100.00
804;BME280;25687;49.976;8.240;2022-10-12T07:37:54;100885.16;;;9.84;100.00
804;BME280;25687;49.976;8.240;2022-10-12T07:40:20;100885.59;;;9.74;100.00
804;BME280;25687;49.976;8.240;2022-10-12T07:42:45;100884.66;;;9.76;100.00
804;BME280;25687;49.976;8.240;2022-10-12T07:45:10;100888.66;;;9.60;100.00
804;BME280;25687;49.976;8.240;2022-10-12T07:47:35;100893.97;;;9.09;100.00
804;BME280;25687;49.976;8.240;2022-10-12T07:50:00;100890.66;;;9.06;100.00
804;BME280;25687;49.976;8.240;2022-10-12T07:52:26;100890.03;;;8.99;100.00
804;BME280;25687;49.976;8.240;2022-10-12T07:54:52;100893.63;;;9.18;100.00
804;BME280;25687;49.976;8.240;2022-10-12T07:57:18;100886.47;;;9.27;100.00
804;BME280;25687;49.976;8.240;2022-10-12T07:59:43;100882.44;;;9.43;100.00
804;BME280;25687;49.976;8.240;2022-10-12T08:02:10;100883.44;;;9.63;100.00
804;BME280;25687;49.976;8.240;2022-10-12T08:04:36;100878.94;;;9.46;100.00
804;BME280;25687;49.976;8.240;2022-10-12T08:07:01;100880.03;;;9.39;100.00
804;BME280;25687;49.976;8.240;2022-10-12T08:09:26;100880.09;;;9.37;100.00
804;BME280;25687;49.976;8.240;2022-10-12T08:11:51;100883.84;;;9.52;100.00
804;BME280;25687;49.976;8.240;2022-10-12T08:14:17;100885.88;;;9.66;100.00
804;BME280;25687;49.976;8.240;2022-10-12T08:16:43;100885.00;;;9.89;100.00
804;BME280;25687;49.976;8.240;2022-10-12T08:19:08;100882.84;;;9.78;100.00
804;BME280;25687;49.976;8.240;2022-10-12T08:21:34;100874.88;;;9.84;100.00
804;BME280;25687;49.976;8.240;2022-10-12T08:23:59;100881.16;;;9.99;100.00
804;BME280;25687;49.976;8.240;2022-10-12T08:26:24;100877.56;;;10.26;100.00
804;BME280;25687;49.976;8.240;2022-10-12T08:28:50;100870.84;;;10.22;100.00
804;BME280;25687;49.976;8.240;2022-10-12T08:31:16;100872.59;;;10.43;100.00
804;BME280;25687;49.976;8.240;2022-10-12T08:33:44;100874.94;;;10.48;100.00
804;BME280;25687;49.976;8.240;2022-10-12T08:36:10;100874.53;;;10.38;100.00
804;BME280;25687;49.976;8.240;2022-10-12T08:38:36;100878.38;;;10.26;100.00
804;BME280;25687;49.976;8.240;2022-10-12T08:44:26;100866.25;;;10.71;100.00
804;BME280;25687;49.976;8.240;2022-10-12T08:47:03;100867.16;;;11.10;100.00
804;BME280;25687;49.976;8.240;2022-10-12T08:49:37;100870.78;;;11.25;100.00
804;BME280;25687;49.976;8.240;2022-10-12T08:52:05;100859.19;;;11.91;100.00
804;BME280;25687;49.976;8.240;2022-10-12T08:54:42;100863.09;;;12.86;98.14
804;BME280;25687;49.976;8.240;2022-10-12T08:57:17;100860.00;;;13.77;89.22
804;BME280;25687;49.976;8.240;2022-10-12T08:59:47;100852.94;;;15.55;75.59
804;BME280;25687;49.976;8.240;2022-10-12T09:10:48;100860.78;;;17.62;62.06
804;BME280;25687;49.976;8.240;2022-10-12T09:16:29;100866.53;;;18.83;52.44
804;BME280;25687;49.976;8.240;2022-10-12T09:19:03;100865.53;;;18.39;52.71
804;BME280;25687;49.976;8.240;2022-10-12T09:21:31;100867.84;;;19.23;51.17
804;BME280;25687;49.976;8.240;2022-10-12T09:23:57;100867.59;;;18.81;51.23
804;BME280;25687;49.976;8.240;2022-10-12T09:26:35;100862.59;;;17.97;54.86
804;BME280;25687;49.976;8.240;2022-10-12T09:29:01;100867.94;;;17.82;55.80
804;BME280;25687;49.976;8.240;2022-10-12T09:34:11;100862.09;;;17.91;58.60
804;BME280;25687;49.976;8.240;2022-10-12T09:36:39;100850.47;;;19.89;50.40
804;BME280;25687;49.976;8.240;2022-10-12T09:39:19;100853.25;;;19.97;47.13
804;BME280;25687;49.976;8.240;2022-10-12T09:41:46;100860.34;;;20.27;46.35
804;BME280;25687;49.976;8.240;2022-10-12T09:44:25;100852.81;;;20.96;44.73
804;BME280;25687;49.976;8.240;2022-10-12T09:46:59;100857.00;;;22.36;40.87
804;BME280;25687;49.976;8.240;2022-10-12T09:49:43;100858.53;;;22.29;39.84
804;BME280;25687;49.976;8.240;2022-10-12T09:52:11;100859.69;;;23.47;37.85
804;BME280;25687;49.976;8.240;2022-10-12T09:54:46;100863.50;;;22.79;38.54
804;BME280;25687;49.976;8.240;2022-10-12T09:57:25;100855.16;;;24.73;36.31
804;BME280;25687;49.976;8.240;2022-10-12T09:59:51;100853.81;;;23.53;37.39
804;BME280;25687;49.976;8.240;2022-10-12T10:02:24;100856.44;;;21.15;41.63
804;BME280;25687;49.976;8.240;2022-10-12T10:04:50;100852.53;;;23.21;40.21
804;BME280;25687;49.976;8.240;2022-10-12T10:07:30;100857.13;;;23.74;37.24
804;BME280;25687;49.976;8.240;2022-10-12T10:10:20;100854.81;;;21.14;42.00
804;BME280;25687;49.976;8.240;2022-10-12T10:12:57;100850.00;;;19.83;46.97
804;BME280;25687;49.976;8.240;2022-10-12T10:15:30;100865.47;;;18.52;54.11
804;BME280;25687;49.976;8.240;2022-10-12T10:18:02;100856.88;;;16.16;71.47
804;BME280;25687;49.976;8.240;2022-10-12T10:22:56;100852.84;;;15.57;78.22
804;BME280;25687;49.976;8.240;2022-10-12T10:25:23;100850.91;;;15.04;84.46
804;BME280;25687;49.976;8.240;2022-10-12T10:27:50;100853.91;;;14.83;87.04
804;BME280;25687;49.976;8.240;2022-10-12T10:30:33;100855.50;;;14.56;90.67
804;BME280;25687;49.976;8.240;2022-10-12T10:33:15;100847.72;;;14.41;91.78
804;BME280;25687;49.976;8.240;2022-10-12T10:35:53;100849.44;;;14.12;93.57
804;BME280;25687;49.976;8.240;2022-10-12T10:38:19;100852.31;;;14.22;96.46
804;BME280;25687;49.976;8.240;2022-10-12T10:40:50;100850.09;;;14.15;95.58
804;BME280;25687;49.976;8.240;2022-10-12T10:43:21;100843.97;;;14.16;97.15
804;BME280;25687;49.976;8.240;2022-10-12T10:45:51;100844.03;;;14.45;93.44
804;BME280;25687;49.976;8.240;2022-10-12T10:48:31;100843.25;;;14.29;93.97
804;BME280;25687;49.976;8.240;2022-10-12T10:51:00;100842.81;;;14.36;94.63
804;BME280;25687;49.976;8.240;2022-10-12T10:53:43;100845.53;;;14.04;95.54
804;BME280;25687;49.976;8.240;2022-10-12T10:56:20;100851.03;;;13.98;97.87
804;BME280;25687;49.976;8.240;2022-10-12T10:58:54;100835.44;;;14.00;97.23
804;BME280;25687;49.976;8.240;2022-10-12T11:01:31;100835.22;;;14.19;97.02
804;BME280;25687;49.976;8.240;2022-10-12T11:06:37;100836.72;;;14.52;94.28
804;BME280;25687;49.976;8.240;2022-10-12T11:09:17;100819.84;;;14.16;96.88
804;BME280;25687;49.976;8.240;2022-10-12T11:12:29;100831.22;;;13.83;97.66
804;BME280;25687;49.976;8.240;2022-10-12T11:14:40;100828.59;;;13.99;97.85
804;BME280;25687;49.976;8.240;2022-10-12T11:17:17;100824.78;;;14.20;96.58
804;BME280;25687;49.976;8.240;2022-10-12T11:19:51;100832.56;;;14.49;95.98
804;BME280;25687;49.976;8.240;2022-10-12T11:22:21;100818.78;;;14.34;94.94
804;BME280;25687;49.976;8.240;2022-10-12T11:24:58;100820.25;;;14.24;97.42
804;BME280;25687;49.976;8.240;2022-10-12T11:27:34;100808.44;;;14.34;95.24
804;BME280;25687;49.976;8.240;2022-10-12T11:30:04;100808.00;;;14.57;95.82
804;BME280;25687;49.976;8.240;2022-10-12T11:32:34;100807.81;;;14.89;95.76
804;BME280;25687;49.976;8.240;2022-10-12T11:35:04;100803.19;;;15.36;91.59
804;BME280;25687;49.976;8.240;2022-10-12T11:37:43;100802.88;;;15.40;87.75
804;BME280;25687;49.976;8.240;2022-10-12T11:42:57;100793.16;;;15.16;93.35
804;BME280;25687;49.976;8.240;2022-10-12T11:45:28;100781.09;;;15.30;94.58
804;BME280;25687;49.976;8.240;2022-10-12T11:48:00;100778.72;;;15.40;93.01
804;BME280;25687;49.976;8.240;2022-10-12T11:50:32;100772.63;;;15.41;92.06
804;BME280;25687;49.976;8.240;2022-10-12T11:53:01;100778.38;;;15.31;94.15
804;BME280;25687;49.976;8.240;2022-10-12T11:58:35;100767.06;;;15.20;95.57
804;BME280;25687;49.976;8.240;2022-10-12T12:04:21;100770.19;;;15.65;97.12
804;BME280;25687;49.976;8.240;2022-10-12T12:06:57;100769.13;;;15.82;95.90
804;BME280;25687;49.976;8.240;2022-10-12T12:12:26;100762.09;;;15.57;99.66
804;BME280;25687;49.976;8.240;2022-10-12T12:19:45;100751.31;;;15.63;94.35
804;BME280;25687;49.976;8.240;2022-10-12T12:27:42;100750.06;;;15.56;97.94
804;BME280;25687;49.976;8.240;2022-10-12T12:35:20;100750.66;;;16.38;93.34
804;BME280;25687;49.976;8.240;2022-10-12T12:37:47;100742.50;;;16.69;90.85
804;BME280;25687;49.976;8.240;2022-10-12T12:40:23;100742.88;;;16.88;86.68
804;BME280;25687;49.976;8.240;2022-10-12T12:42:48;100741.69;;;17.05;86.02
804;BME280;25687;49.976;8.240;2022-10-12T12:47:54;100747.34;;;17.48;84.96
804;BME280;25687;49.976;8.240;2022-10-12T12:50:34;100749.22;;;17.93;80.90
804;BME280;25687;49.976;8.240;2022-10-12T12:53:04;100754.47;;;18.04;79.71
804;BME280;25687;49.976;8.240;2022-10-12T12:58:29;100748.34;;;18.16;78.58
804;BME280;25687;49.976;8.240;2022-10-12T13:01:13;100741.81;;;18.22;77.57
804;BME280;25687;49.976;8.240;2022-10-12T13:15:15;100731.19;;;18.36;75.94
804;BME280;25687;49.976;8.240;2022-10-12T13:17:58;100731.78;;;18.17;76.85
804;BME280;25687;49.976;8.240;2022-10-12T13:20:31;100722.50;;;17.55;85.22
804;BME280;25687;49.976;8.240;2022-10-12T13:22:59;100722.53;;;17.19;86.48
804;BME280;25687;49.976;8.240;2022-10-12T13:25:31;100713.63;;;17.10;89.49
804;BME280;25687;49.976;8.240;2022-10-12T13:27:59;100714.88;;;17.29;91.19
804;BME280;25687;49.976;8.240;2022-10-12T13:30:38;100716.88;;;17.25;88.92
804;BME280;25687;49.976;8.240;2022-10-12T13:33:19;100711.91;;;16.98;89.93
804;BME280;25687;49.976;8.240;2022-10-12T13:35:51;100712.56;;;17.13;91.10
804;BME280;25687;49.976;8.240;2022-10-12T13:38:24;100709.09;;;16.88;91.44
804;BME280;25687;49.976;8.240;2022-10-12T13:40:57;100706.97;;;17.06;93.43
804;BME280;25687;49.976;8.240;2022-10-12T13:43:50;100708.81;;;16.80;94.93
804;BME280;25687;49.976;8.240;2022-10-12T13:49:21;100713.91;;;16.82;93.64
804;BME280;25687;49.976;8.240;2022-10-12T13:51:51;100712.16;;;16.82;96.06
804;BME280;25687;49.976;8.240;2022-10-12T13:56:42;100714.84;;;16.30;100.00
804;BME280;25687;49.976;8.240;2022-10-12T13:59:21;100708.06;;;16.54;99.57
804;BME280;25687;49.976;8.240;2022-10-12T14:01:59;100708.56;;;16.59;99.60
804;BME280;25687;49.976;8.240;2022-10-12T14:04:30;100703.75;;;16.66;98.39
804;BME280;25687;49.976;8.240;2022-10-12T14:06:59;100703.59;;;17.17;96.25
804;BME280;25687;49.976;8.240;2022-10-12T14:09:27;100704.41;;;17.18;94.75
804;BME280;25687;49.976;8.240;2022-10-12T14:11:55;100696.44;;;17.32;97.06
804;BME280;25687;49.976;8.240;2022-10-12T14:14:33;100699.00;;;17.21;95.65
804;BME280;25687;49.976;8.240;2022-10-12T14:17:00;100708.41;;;17.46;94.66
804;BME280;25687;49.976;8.240;2022-10-12T14:22:04;100698.78;;;16.87;97.25
804;BME280;25687;49.976;8.240;2022-10-12T14:24:31;100696.50;;;16.71;99.77
804;BME280;25687;49.976;8.240;2022-10-12T14:27:00;100683.44;;;16.84;98.99
804;BME280;25687;49.976;8.240;2022-10-12T14:29:40;100683.31;;;16.85;98.73
804;BME280;25687;49.976;8.240;2022-10-12T14:32:33;100676.88;;;16.17;100.00
804;BME280;25687;49.976;8.240;2022-10-12T14:35:24;100671.44;;;16.33;100.00
804;BME280;25687;49.976;8.240;2022-10-12T14:37:51;100673.19;;;16.69;100.00
804;BME280;25687;49.976;8.240;2022-10-12T14:40:35;100678.63;;;16.90;100.00
804;BME280;25687;49.976;8.240;2022-10-12T14:45:28;100672.06;;;16.36;100.00
804;BME280;25687;49.976;8.240;2022-10-12T14:47:55;100669.91;;;15.91;100.00
804;BME280;25687;49.976;8.240;2022-10-12T14:50:21;100673.22;;;15.80;100.00
804;BME280;25687;49.976;8.240;2022-10-12T14:52:51;100680.00;;;15.96;100.00
804;BME280;25687;49.976;8.240;2022-10-12T14:55:26;100680.56;;;15.74;100.00
804;BME280;25687;49.976;8.240;2022-10-12T14:57:52;100688.09;;;16.04;100.00
804;BME280;25687;49.976;8.240;2022-10-12T15:00:31;100695.53;;;16.22;100.00
804;BME280;25687;49.976;8.240;2022-10-12T15:02:58;100690.13;;;16.38;100.00